Time;durP1;ratioP1;P1;durP2;ratioP2;P2;SDS_P1;SDS_P2;PMS_P1;PMS_P2;Temp;Humidity;BMP_temperature;BMP_pressure;BME280_temperature;BME280_humidity;BME280_pressure;Samples;Min_cycle;Max_cycle;Signal;HPM_P1;HPM_P2
2022/05/23 00:01:21;;;;;;;5.20;3.20;;;;;;;9.58;67.77;99947.81;130317;1268;107169;-79
2022/05/23 00:04:27;;;;;;;5.70;3.40;;;;;;;9.63;67.92;99948.40;130320;1268;108460;-78
2022/05/23 00:07:35;;;;;;;4.50;3.10;;;;;;;9.72;68.06;99948.95;130299;1267;109035;-78
2022/05/23 00:10:41;;;;;;;6.00;3.50;;;;;;;9.78;68.02;99951.87;130333;1268;108811;-78
2022/05/23 00:13:46;;;;;;;6.40;4.10;;;;;;;9.79;68.33;99956.89;130387;1268;108828;-78
2022/05/23 00:16:53;;;;;;;5.70;4.00;;;;;;;9.69;68.82;99963.79;130356;1268;108756;-78
2022/05/23 00:19:58;;;;;;;7.00;4.00;;;;;;;9.60;68.74;99961.09;130357;1268;109137;-78
2022/05/23 00:23:04;;;;;;;6.90;4.10;;;;;;;9.57;68.44;99963.36;130322;1267;108660;-78
2022/05/23 00:26:11;;;;;;;5.30;4.10;;;;;;;9.60;68.51;99963.39;130311;1268;108660;-78
2022/05/23 00:29:16;;;;;;;5.60;3.70;;;;;;;9.61;68.99;99964.90;130286;1268;108800;-79
2022/05/23 00:35:51;;;;;;;6.10;3.90;;;;;;;9.55;69.13;99972.23;130370;1268;108665;-79
2022/05/23 00:38:56;;;;;;;6.80;3.80;;;;;;;9.53;69.74;99973.74;130297;1268;108752;-79
2022/05/23 00:45:28;;;;;;;5.60;4.00;;;;;;;9.50;69.61;99971.59;130367;1267;108696;-78
2022/05/23 00:48:34;;;;;;;5.50;3.90;;;;;;;9.47;69.93;99974.33;130291;1268;107672;-78
2022/05/23 00:51:40;;;;;;;6.00;4.10;;;;;;;9.45;69.66;99974.31;130289;1268;109544;-79
2022/05/23 00:54:49;;;;;;;5.20;3.50;;;;;;;9.44;69.55;99971.81;130293;1268;108594;-78
2022/05/23 00:58:02;;;;;;;4.20;3.30;;;;;;;9.54;69.53;99969.19;130327;1268;107678;-76
2022/05/23 01:01:11;;;;;;;6.70;4.00;;;;;;;9.63;69.79;99974.66;130173;1267;178425;-76
2022/05/23 01:04:18;;;;;;;6.10;4.40;;;;;;;9.68;69.43;99975.61;130322;1268;108625;-76
2022/05/23 01:07:23;;;;;;;7.20;4.40;;;;;;;9.74;69.65;99977.33;130270;1268;108506;-76
2022/05/23 01:10:32;;;;;;;7.60;4.80;;;;;;;9.73;69.58;99977.09;130262;1267;108962;-77
2022/05/23 01:13:38;;;;;;;6.70;5.30;;;;;;;9.70;69.76;99977.50;130230;1268;108668;-75
2022/05/23 01:16:44;;;;;;;6.10;5.20;;;;;;;9.65;69.97;99977.32;130297;1267;108731;-74
2022/05/23 01:19:50;;;;;;;6.90;5.10;;;;;;;9.58;70.18;99980.13;130310;1268;109564;-75
2022/05/23 01:23:05;;;;;;;5.60;4.20;;;;;;;9.53;70.38;99980.48;130197;1268;109052;-74
2022/05/23 01:26:24;;;;;;;5.60;3.90;;;;;;;9.52;70.19;99983.46;130299;1267;107693;-74
2022/05/23 01:29:33;;;;;;;6.30;4.40;;;;;;;9.54;70.35;99982.68;130279;1268;108723;-74
2022/05/23 01:32:46;;;;;;;5.10;4.40;;;;;;;9.57;70.19;99983.25;130305;1268;108737;-74
2022/05/23 01:35:52;;;;;;;8.30;4.80;;;;;;;9.62;70.45;99984.67;130251;1268;108745;-75
2022/05/23 01:38:57;;;;;;;6.30;4.60;;;;;;;9.67;70.19;99985.69;130279;1268;108828;-75
2022/05/23 01:42:06;;;;;;;7.30;4.60;;;;;;;9.70;70.40;99984.84;130276;1267;108770;-77
2022/05/23 01:45:14;;;;;;;6.90;4.70;;;;;;;9.69;70.36;99981.08;130248;1268;108805;-78
2022/05/23 01:48:20;;;;;;;7.40;4.90;;;;;;;9.67;70.58;99980.66;130221;1268;108658;-77
2022/05/23 01:51:26;;;;;;;5.30;4.00;;;;;;;9.65;70.66;99978.95;130313;1268;108808;-76
2022/05/23 01:54:31;;;;;;;4.70;3.50;;;;;;;9.64;70.75;99979.23;130217;1268;108681;-76
2022/05/23 01:57:38;;;;;;;7.30;4.20;;;;;;;9.65;70.62;99975.23;130287;1268;107045;-73
2022/05/23 02:04:34;;;;;;;7.40;4.40;;;;;;;9.69;71.16;99969.86;130000;1271;108801;-75
2022/05/23 02:07:39;;;;;;;9.30;4.70;;;;;;;9.68;71.12;99968.69;129915;1270;108731;-76
2022/05/23 02:10:45;;;;;;;6.10;4.90;;;;;;;9.66;70.93;99968.91;130273;1268;107680;-75
2022/05/23 02:13:52;;;;;;;6.60;4.70;;;;;;;9.66;70.94;99971.77;130370;1268;108740;-77
2022/05/23 02:17:05;;;;;;;6.80;4.20;;;;;;;9.63;70.98;99969.50;130330;1268;108767;-75
2022/05/23 02:20:13;;;;;;;6.10;4.00;;;;;;;9.60;71.30;99968.75;130252;1268;108786;-76
2022/05/23 02:23:19;;;;;;;7.40;4.50;;;;;;;9.58;71.48;99966.16;130276;1266;109038;-78
2022/05/23 02:26:24;;;;;;;6.10;4.20;;;;;;;9.59;71.20;99963.74;130306;1268;108560;-78
2022/05/23 02:29:45;;;;;;;6.30;4.40;;;;;;;9.61;71.33;99957.10;130325;1268;108658;-76
2022/05/23 02:32:52;;;;;;;7.60;4.80;;;;;;;9.60;71.28;99956.90;130322;1267;108864;-76
2022/05/23 02:35:58;;;;;;;6.20;4.50;;;;;;;9.53;71.58;99957.59;130277;1268;109005;-76
2022/05/23 02:39:05;;;;;;;5.90;4.90;;;;;;;9.47;71.38;99960.88;130347;1268;108761;-77
2022/05/23 02:42:11;;;;;;;5.20;4.10;;;;;;;9.40;71.37;99959.23;130349;1268;108899;-76
2022/05/23 02:45:17;;;;;;;5.30;4.10;;;;;;;9.36;71.36;99960.19;130273;1267;109169;-77
2022/05/23 02:48:24;;;;;;;6.90;5.00;;;;;;;9.36;71.52;99959.10;130229;1268;108667;-75
2022/05/23 02:51:30;;;;;;;7.00;4.80;;;;;;;9.36;71.52;99958.56;130261;1268;108687;-81
2022/05/23 02:54:37;;;;;;;6.70;4.70;;;;;;;9.36;71.79;99960.32;130301;1267;108980;-76
2022/05/23 02:57:43;;;;;;;6.00;5.00;;;;;;;9.34;71.77;99962.79;130375;1267;108734;-75
2022/05/23 03:00:53;;;;;;;6.40;5.10;;;;;;;9.28;71.64;99963.84;130304;1268;108677;-76
2022/05/23 03:03:59;;;;;;;8.00;5.30;;;;;;;9.21;71.92;99961.12;130246;1268;108680;-73
2022/05/23 03:07:06;;;;;;;8.00;4.90;;;;;;;9.14;72.05;99963.57;130190;1268;108727;-75
2022/05/23 03:10:12;;;;;;;7.20;4.60;;;;;;;9.10;72.20;99962.54;130301;1267;108694;-76
2022/05/23 03:13:18;;;;;;;7.80;5.70;;;;;;;9.09;72.18;99965.70;130311;1268;108745;-74
2022/05/23 03:16:23;;;;;;;7.50;6.10;;;;;;;9.11;71.91;99964.17;130251;1268;108909;-74
2022/05/23 03:19:29;;;;;;;8.70;5.60;;;;;;;9.17;71.91;99962.95;130356;1267;108638;-74
2022/05/23 03:29:32;;;;;;;9.80;7.40;;;;;;;9.14;71.71;99968.14;130247;1268;108685;-75
2022/05/23 03:32:39;;;;;;;9.80;6.80;;;;;;;9.17;72.09;99965.61;130260;1268;108662;-75
2022/05/23 03:35:45;;;;;;;9.20;6.40;;;;;;;9.11;72.07;99961.94;130317;1268;108936;-75
2022/05/23 03:38:51;;;;;;;10.90;7.30;;;;;;;9.10;71.66;99958.66;130258;1267;108716;-76
2022/05/23 03:41:57;;;;;;;10.70;7.70;;;;;;;9.15;71.61;99960.31;130269;1268;107671;-76
2022/05/23 03:45:02;;;;;;;9.60;8.30;;;;;;;9.14;71.49;99959.08;130222;1268;108727;-76
2022/05/23 03:48:16;;;;;;;10.00;8.00;;;;;;;9.12;71.54;99961.65;130260;1268;109077;-76
2022/05/23 03:51:21;;;;;;;9.00;7.30;;;;;;;9.12;71.52;99963.09;130221;1268;108684;-75
2022/05/23 03:54:27;;;;;;;9.30;8.10;;;;;;;9.10;71.51;99960.95;130243;1268;108722;-75
2022/05/23 03:57:33;;;;;;;9.70;8.20;;;;;;;9.05;71.56;99963.38;130338;1267;108735;-74
2022/05/23 04:00:38;;;;;;;8.40;6.90;;;;;;;9.06;71.43;99959.59;130303;1267;108794;-75
2022/05/23 04:03:44;;;;;;;8.10;6.60;;;;;;;9.10;71.52;99963.59;130274;1267;108649;-76
2022/05/23 04:06:50;;;;;;;9.40;7.30;;;;;;;9.12;71.55;99968.02;130304;1268;108727;-76
2022/05/23 04:09:56;;;;;;;8.60;7.70;;;;;;;9.18;71.28;99970.66;130238;1268;108619;-76
2022/05/23 04:13:05;;;;;;;9.30;7.40;;;;;;;9.17;71.42;99968.92;130320;1268;108795;-76
2022/05/23 04:16:11;;;;;;;9.40;7.60;;;;;;;9.21;71.46;99963.90;130197;1268;108579;-76
2022/05/23 04:19:18;;;;;;;9.30;7.70;;;;;;;9.35;71.55;99963.40;130263;1268;108857;-77
2022/05/23 04:22:37;;;;;;;8.40;7.60;;;;;;;9.53;71.32;99956.81;130295;1268;108693;-75
2022/05/23 04:25:49;;;;;;;8.00;6.90;;;;;;;9.82;71.23;99953.57;130237;1268;108478;-75
2022/05/23 04:28:56;;;;;;;10.10;6.30;;;;;;;10.12;71.14;99952.10;130305;1268;108734;-76
2022/05/23 04:32:02;;;;;;;7.20;5.30;;;;;;;10.38;70.75;99951.12;130317;1267;108962;-76
2022/05/23 04:35:22;;;;;;;7.90;6.00;;;;;;;10.60;70.24;99949.36;130356;1267;108662;-76
2022/05/23 04:38:28;;;;;;;6.30;5.30;;;;;;;10.85;69.84;99951.52;130270;1268;108697;-77
2022/05/23 04:41:34;;;;;;;7.40;6.20;;;;;;;11.07;69.29;99951.13;130318;1268;108750;-77
2022/05/23 04:44:40;;;;;;;6.80;5.90;;;;;;;11.26;69.86;99951.61;130328;1267;108748;-76
2022/05/23 04:51:10;;;;;;;7.30;5.40;;;;;;;11.54;68.20;99957.18;130226;1268;108941;-75
2022/05/23 04:54:23;;;;;;;6.90;5.60;;;;;;;11.61;69.08;99959.00;130199;1268;108717;-75
2022/05/23 04:57:28;;;;;;;7.20;5.00;;;;;;;11.83;68.76;99957.70;130333;1268;108781;-72
2022/05/23 05:00:34;;;;;;;7.10;5.30;;;;;;;12.00;68.26;99955.06;130278;1268;107762;-73
2022/05/23 05:03:41;;;;;;;6.50;4.70;;;;;;;12.12;68.04;99955.31;130309;1267;108771;-77
2022/05/23 05:06:47;;;;;;;6.30;4.70;;;;;;;12.15;67.57;99959.89;130477;1268;108570;-76
2022/05/23 05:09:52;;;;;;;5.80;4.60;;;;;;;12.22;67.28;99960.23;130343;1267;108674;-76
2022/05/23 05:12:59;;;;;;;5.60;4.60;;;;;;;12.36;67.85;99955.83;130341;1267;107732;-78
2022/05/23 05:16:06;;;;;;;5.60;4.70;;;;;;;12.47;66.73;99954.27;130400;1268;108320;-78
2022/05/23 05:19:14;;;;;;;7.70;4.90;;;;;;;12.56;67.16;99960.33;130423;1267;108702;-76
2022/05/23 05:22:25;;;;;;;7.00;4.60;;;;;;;12.66;66.39;99958.38;130438;1267;107443;-77
2022/05/23 05:25:55;;;;;;;6.60;4.50;;;;;;;12.72;66.93;99955.11;130654;1267;107512;-78
2022/05/23 05:29:07;;;;;;;5.10;4.10;;;;;;;12.83;66.28;99953.09;130431;1268;108662;-78
2022/05/23 05:32:18;;;;;;;5.70;4.20;;;;;;;12.90;66.83;99950.94;130356;1267;107764;-77
2022/05/23 05:35:29;;;;;;;4.50;4.00;;;;;;;13.05;66.88;99952.00;130552;1267;108543;-80
2022/05/23 05:38:40;;;;;;;4.90;4.00;;;;;;;13.21;66.79;99949.08;130448;1267;108711;-76
2022/05/23 05:41:53;;;;;;;6.20;4.20;;;;;;;13.28;65.54;99953.21;130374;1268;108619;-75
2022/05/23 05:45:05;;;;;;;5.50;3.70;;;;;;;13.25;65.22;99953.08;130379;1268;108680;-75
2022/05/23 05:48:11;;;;;;;7.20;4.50;;;;;;;13.17;64.96;99953.83;130477;1268;109574;-80
2022/05/23 05:51:21;;;;;;;5.00;4.20;;;;;;;13.10;64.35;99959.59;130946;1268;109004;-78
2022/05/23 05:54:45;;;;;;;5.60;4.30;;;;;;;13.01;64.39;99959.38;130329;1267;108830;-75
2022/05/23 05:57:51;;;;;;;4.90;4.30;;;;;;;13.04;65.69;99962.11;130294;1268;108087;-77
2022/05/23 06:00:57;;;;;;;5.90;4.30;;;;;;;13.15;65.04;99964.33;130372;1267;107701;-76
2022/05/23 06:04:06;;;;;;;7.50;4.90;;;;;;;13.17;64.38;99965.55;130347;1267;108672;-76
2022/05/23 06:14:40;;;;;;;4.50;4.10;;;;;;;13.34;64.85;99959.30;130121;1268;108572;-78
2022/05/23 06:17:46;;;;;;;4.30;3.80;;;;;;;13.30;64.70;99964.23;130340;1268;108672;-76
2022/05/23 06:20:54;;;;;;;4.60;3.90;;;;;;;13.25;64.37;99964.86;130501;1267;108656;-76
2022/05/23 06:24:00;;;;;;;5.20;4.30;;;;;;;13.26;64.59;99969.54;130405;1268;108711;-77
2022/05/23 06:27:12;;;;;;;6.10;4.20;;;;;;;13.23;64.69;99977.33;130404;1268;108777;-76
2022/05/23 06:30:36;;;;;;;4.00;3.40;;;;;;;13.31;64.78;99979.47;130333;1266;108759;-75
2022/05/23 06:33:49;;;;;;;5.90;3.50;;;;;;;13.42;64.53;99980.80;130381;1266;108821;-76
2022/05/23 06:37:02;;;;;;;5.20;3.40;;;;;;;13.43;63.98;99982.33;130343;1267;108739;-79
2022/05/23 06:40:12;;;;;;;4.30;3.40;;;;;;;13.49;64.39;99984.25;130290;1268;108537;-77
2022/05/23 06:43:52;;;;;;;6.30;3.50;;;;;;;13.70;64.62;99984.67;130385;1267;108102;-78
2022/05/23 06:47:01;;;;;;;4.80;3.40;;;;;;;13.85;64.25;99988.13;130355;1267;108657;-76
2022/05/23 06:50:25;;;;;;;4.30;2.60;;;;;;;13.91;62.07;99995.91;130379;1267;108707;-76
2022/05/23 06:53:48;;;;;;;5.10;3.10;;;;;;;13.81;62.11;99997.67;130414;1266;108678;-77
2022/05/23 06:57:14;;;;;;;4.60;3.30;;;;;;;13.92;63.66;99995.70;130149;1268;108728;-76
2022/05/23 07:00:20;;;;;;;4.00;3.40;;;;;;;14.05;63.53;99993.88;130319;1267;108793;-77
2022/05/23 07:03:36;;;;;;;5.00;3.30;;;;;;;14.21;63.87;99993.20;130433;1268;108640;-76
2022/05/23 07:13:33;;;;;;;5.20;3.50;;;;;;;14.37;63.13;99984.23;130392;1266;108756;-76
2022/05/23 07:16:39;;;;;;;3.10;2.50;;;;;;;14.45;62.87;99988.39;130456;1266;108674;-76
2022/05/23 07:19:45;;;;;;;2.90;2.00;;;;;;;14.56;62.23;99987.36;130468;1268;108887;-76
2022/05/23 07:22:52;;;;;;;4.60;2.00;;;;;;;14.62;61.63;99989.52;130468;1268;107804;-76
2022/05/23 07:25:58;;;;;;;3.90;2.50;;;;;;;14.56;59.02;99986.58;130324;1267;108659;-76
2022/05/23 07:29:23;;;;;;;3.50;2.40;;;;;;;14.47;59.41;99986.73;130312;1267;108764;-76
2022/05/23 07:32:30;;;;;;;3.00;2.50;;;;;;;14.53;61.15;99986.23;130345;1267;108677;-75
2022/05/23 07:35:36;;;;;;;3.50;2.20;;;;;;;14.66;60.80;99993.67;130330;1267;108641;-76
2022/05/23 07:38:42;;;;;;;2.90;2.30;;;;;;;14.86;61.48;99990.71;130392;1267;108955;-74
2022/05/23 07:41:51;;;;;;;2.30;1.90;;;;;;;15.06;60.40;99983.05;130371;1268;108728;-76
2022/05/23 07:45:01;;;;;;;3.10;1.80;;;;;;;15.03;59.42;99987.70;130377;1268;108661;-76
2022/05/23 07:48:08;;;;;;;2.30;2.10;;;;;;;14.94;60.60;99988.82;130414;1266;108674;-75
2022/05/23 07:51:19;;;;;;;3.10;2.10;;;;;;;14.95;60.34;99993.55;130349;1267;108745;-76
2022/05/23 08:01:20;;;;;;;2.00;1.80;;;;;;;15.52;59.29;99981.52;130135;1267;109215;-75
2022/05/23 08:04:34;;;;;;;3.80;2.90;;;;;;;15.77;58.90;99986.27;130420;1268;108659;-75
2022/05/23 08:07:41;;;;;;;4.00;3.10;;;;;;;15.83;59.55;99983.75;130293;1268;108740;-76
2022/05/23 08:10:47;;;;;;;3.50;3.00;;;;;;;15.93;60.00;99978.89;130374;1267;108661;-77
2022/05/23 08:13:56;;;;;;;5.00;2.80;;;;;;;16.12;59.86;99980.06;130413;1267;108763;-77
2022/05/23 08:17:03;;;;;;;4.00;2.80;;;;;;;16.32;59.61;99976.13;130496;1267;108654;-78
2022/05/23 08:20:15;;;;;;;5.00;3.20;;;;;;;16.35;56.85;99976.58;130452;1268;109077;-78
2022/05/23 08:23:21;;;;;;;3.80;2.70;;;;;;;16.14;57.00;99976.06;130324;1268;108982;-77
2022/05/23 08:26:42;;;;;;;4.00;3.20;;;;;;;16.12;58.29;99973.85;130528;1267;108875;-76
2022/05/23 08:29:48;;;;;;;4.40;2.90;;;;;;;16.23;58.33;99970.98;130390;1267;108724;-76
2022/05/23 08:32:54;;;;;;;3.50;3.20;;;;;;;16.39;57.55;99969.92;130399;1268;108688;-75
2022/05/23 08:35:59;;;;;;;3.40;2.80;;;;;;;16.42;56.70;99975.33;130249;1268;108676;-78
2022/05/23 08:39:05;;;;;;;3.20;2.70;;;;;;;16.52;57.50;99971.16;130409;1268;108724;-76
2022/05/23 08:42:27;;;;;;;2.50;2.20;;;;;;;16.70;57.57;99965.77;130441;1265;108710;-76
2022/05/23 08:45:46;;;;;;;3.40;2.70;;;;;;;16.70;57.19;99964.77;130324;1268;108706;-78
2022/05/23 08:49:02;;;;;;;4.50;3.10;;;;;;;16.53;55.93;99970.13;130257;1268;108671;-77
2022/05/23 08:52:19;;;;;;;3.60;3.00;;;;;;;16.23;55.88;99975.37;130413;1267;108679;-77
2022/05/23 08:55:30;;;;;;;8.10;7.30;;;;;;;16.12;55.99;99982.72;130253;1268;108463;-76
2022/05/23 08:59:06;;;;;;;3.30;2.80;;;;;;;16.00;55.77;99980.18;130332;1267;108704;-77
2022/05/23 09:02:19;;;;;;;2.90;2.50;;;;;;;16.14;56.40;99971.70;130272;1267;108720;-78
2022/05/23 09:05:32;;;;;;;4.10;3.20;;;;;;;16.36;55.10;99968.54;130455;1268;108744;-77
2022/05/23 09:08:45;;;;;;;4.30;3.70;;;;;;;16.40;54.81;99966.04;130360;1268;108748;-75
2022/05/23 09:11:54;;;;;;;3.60;2.50;;;;;;;16.46;55.12;99952.73;130425;1268;108674;-75
2022/05/23 09:15:00;;;;;;;4.10;2.70;;;;;;;16.66;55.72;99945.11;130386;1268;109153;-77
2022/05/23 09:18:12;;;;;;;8.50;7.60;;;;;;;16.77;53.47;99944.09;130381;1268;108589;-75
2022/05/23 09:21:16;;;;;;;;;;;;;;;16.74;54.88;99942.45;130406;1268;108710;-77
2022/05/23 09:24:22;;;;;;;2.70;2.20;;;;;;;16.69;54.48;99945.30;130366;1268;108653;-77
2022/05/23 09:27:36;;;;;;;2.50;2.20;;;;;;;16.47;54.26;99946.88;130351;1268;106920;-77
2022/05/23 09:30:43;;;;;;;3.30;2.10;;;;;;;16.49;55.47;99942.67;130462;1266;108762;-78
2022/05/23 09:33:51;;;;;;;2.20;1.90;;;;;;;16.73;54.69;99936.45;130393;1266;108760;-78
2022/05/23 09:37:03;;;;;;;2.70;1.90;;;;;;;17.00;54.15;99933.54;130477;1268;108799;-78
2022/05/23 09:40:21;;;;;;;3.50;2.00;;;;;;;17.37;54.89;99923.58;130504;1268;108676;-78
2022/05/23 09:50:36;;;;;;;2.90;2.00;;;;;;;16.93;52.63;99934.34;130414;1267;108628;-77
2022/05/23 09:53:52;;;;;;;2.50;1.90;;;;;;;16.81;53.45;99929.31;130392;1268;108706;-78
2022/05/23 09:57:01;;;;;;;2.30;1.70;;;;;;;16.84;54.16;99931.27;130386;1266;108644;-77
2022/05/23 10:00:10;;;;;;;2.70;1.90;;;;;;;17.00;54.10;99923.83;130389;1268;108940;-77
2022/05/23 10:03:23;;;;;;;3.80;2.60;;;;;;;17.07;52.29;99929.70;130365;1267;108694;-77
2022/05/23 10:06:40;;;;;;;2.00;1.80;;;;;;;16.95;52.53;99925.36;130402;1267;109036;-82
2022/05/23 10:09:57;;;;;;;1.90;1.50;;;;;;;16.88;53.06;99921.04;130510;1267;108631;-78
2022/05/23 10:13:25;;;;;;;2.60;1.90;;;;;;;16.96;52.58;99921.95;130346;1268;107785;-77
2022/05/23 10:16:43;;;;;;;2.50;1.70;;;;;;;16.87;52.59;99916.92;130533;1266;108624;-77
2022/05/23 10:19:49;;;;;;;1.80;1.40;;;;;;;16.90;52.81;99910.16;130545;1268;108676;-77
2022/05/23 10:23:01;;;;;;;4.20;2.20;;;;;;;16.99;52.41;99909.02;130442;1268;108715;-77
2022/05/23 10:26:16;;;;;;;5.30;2.10;;;;;;;16.94;52.17;99913.29;130464;1268;106959;-78
2022/05/23 10:29:26;;;;;;;3.80;2.40;;;;;;;16.79;51.55;99915.95;130407;1268;108675;-77
2022/05/23 10:32:37;;;;;;;2.30;2.10;;;;;;;16.65;52.04;99910.71;130390;1268;108654;-78
2022/05/23 10:35:50;;;;;;;2.90;2.20;;;;;;;16.60;52.55;99907.83;130430;1268;108766;-77
2022/05/23 10:42:36;;;;;;;2.40;2.10;;;;;;;16.65;52.58;99900.67;130420;1268;108653;-77
2022/05/23 10:45:47;;;;;;;2.40;1.60;;;;;;;16.78;52.94;99899.91;130430;1267;108668;-77
2022/05/23 10:49:01;;;;;;;1.80;1.70;;;;;;;17.10;51.46;99895.20;130411;1268;108687;-77
2022/05/23 10:52:13;;;;;;;2.60;1.70;;;;;;;17.35;51.23;99896.97;130419;1268;108758;-77
2022/05/23 10:55:25;;;;;;;1.80;1.70;;;;;;;17.54;51.11;99892.30;130412;1266;108673;-77
2022/05/23 10:58:37;;;;;;;1.70;1.30;;;;;;;17.77;51.23;99889.76;130381;1267;108628;-77
2022/05/23 11:01:53;;;;;;;2.30;1.80;;;;;;;17.94;50.76;99888.86;130396;1268;108703;-77
2022/05/23 11:05:09;;;;;;;1.90;1.40;;;;;;;18.05;50.54;99887.05;130393;1268;108683;-77
2022/05/23 11:08:38;;;;;;;2.10;1.60;;;;;;;18.30;50.69;99885.31;130426;1266;108674;-77
2022/05/23 11:12:03;;;;;;;2.10;1.60;;;;;;;18.61;50.85;99882.45;130405;1268;108740;-78
2022/05/23 11:15:22;;;;;;;1.60;1.30;;;;;;;18.68;50.97;99878.42;130349;1268;109018;-77
2022/05/23 11:18:41;;;;;;;1.80;1.60;;;;;;;18.73;50.71;99876.58;130466;1268;108704;-77
2022/05/23 11:21:56;;;;;;;2.60;1.90;;;;;;;18.76;50.90;99879.38;130563;1268;108931;-77
2022/05/23 11:25:14;;;;;;;2.70;1.40;;;;;;;18.74;50.73;99880.10;130313;1267;108712;-77
2022/05/23 11:35:21;;;;;;;2.60;1.80;;;;;;;19.06;48.28;99864.94;130392;1268;108795;-78
2022/05/23 11:38:28;;;;;;;2.20;1.70;;;;;;;19.21;48.81;99864.92;130435;1267;108652;-77
2022/05/23 11:41:40;;;;;;;2.70;1.40;;;;;;;19.34;49.35;99857.70;130454;1268;108598;-77
2022/05/23 11:48:52;;;;;;;3.10;1.60;;;;;;;19.35;48.21;99852.45;130382;1267;108729;-77
2022/05/23 11:52:03;;;;;;;1.70;1.20;;;;;;;19.18;48.68;99849.03;130432;1268;107678;-77
2022/05/23 11:55:09;;;;;;;2.10;1.60;;;;;;;19.15;48.58;99851.68;130346;1268;108549;-78
2022/05/23 11:58:27;;;;;;;2.30;1.20;;;;;;;19.19;48.99;99848.77;130443;1268;107378;-78
2022/05/23 12:01:34;;;;;;;1.60;1.30;;;;;;;19.32;48.92;99851.47;130407;1266;108824;-78
2022/05/23 12:05:12;;;;;;;2.30;1.20;;;;;;;19.41;47.92;99845.27;130398;1268;107659;-81
2022/05/23 12:08:39;;;;;;;1.30;1.20;;;;;;;19.49;47.26;99839.84;130421;1268;108755;-75
2022/05/23 12:11:48;;;;;;;1.60;1.00;;;;;;;19.78;48.44;99845.52;130526;1268;108659;-78
2022/05/23 12:14:56;;;;;;;2.20;1.30;;;;;;;20.04;48.29;99842.27;130376;1267;107672;-78
2022/05/23 12:18:03;;;;;;;1.50;1.10;;;;;;;20.09;48.06;99838.14;130451;1268;108673;-77
2022/05/23 12:21:25;;;;;;;2.20;1.10;;;;;;;20.12;48.21;99836.23;130370;1268;108724;-77
2022/05/23 12:24:35;;;;;;;1.40;1.20;;;;;;;20.30;48.21;99825.47;130346;1268;108811;-77
2022/05/23 12:27:59;;;;;;;2.60;1.20;;;;;;;20.58;47.84;99818.70;130405;1267;108713;-78
2022/05/23 12:31:15;;;;;;;1.70;1.20;;;;;;;20.77;47.70;99811.07;130399;1268;108688;-78
2022/05/23 12:34:21;;;;;;;1.80;1.40;;;;;;;20.89;47.55;99808.27;130311;1268;108740;-78
2022/05/23 12:37:30;;;;;;;4.90;1.00;;;;;;;20.98;47.33;99808.34;130365;1267;108836;-75
2022/05/23 12:40:46;;;;;;;1.70;1.20;;;;;;;20.95;45.52;99802.54;130530;1268;108925;-78
2022/05/23 12:44:29;;;;;;;1.30;1.20;;;;;;;20.81;46.29;99802.22;130450;1268;108733;-79
2022/05/23 12:48:03;;;;;;;1.70;1.30;;;;;;;20.77;46.06;99796.52;130418;1268;106643;-76
2022/05/23 12:51:22;;;;;;;1.40;1.20;;;;;;;20.75;46.19;99795.71;130375;1268;109542;-76
2022/05/23 12:54:41;;;;;;;1.10;0.90;;;;;;;20.82;46.18;99787.72;130355;1268;108704;-77
2022/05/23 12:58:04;;;;;;;1.40;1.30;;;;;;;20.98;46.54;99787.73;130311;1268;110375;-77
2022/05/23 13:01:12;;;;;;;1.50;1.10;;;;;;;21.01;45.99;99782.92;130126;1268;290224;-76
2022/05/23 13:04:23;;;;;;;1.80;1.20;;;;;;;20.94;45.83;99779.23;130422;1268;108731;-76
2022/05/23 13:07:36;;;;;;;2.30;1.20;;;;;;;20.84;45.13;99780.10;130409;1268;108696;-76
2022/05/23 13:10:44;;;;;;;1.30;1.20;;;;;;;20.63;44.12;99774.63;130383;1268;108695;-78
2022/05/23 13:13:51;;;;;;;1.60;1.10;;;;;;;20.50;44.42;99772.42;130445;1268;108600;-78
2022/05/23 13:16:58;;;;;;;1.60;1.10;;;;;;;20.42;45.20;99773.29;130339;1267;108790;-77
2022/05/23 13:23:40;;;;;;;2.10;1.30;;;;;;;20.58;45.52;99776.29;130210;1268;108744;-78
2022/05/23 13:26:47;;;;;;;2.80;1.60;;;;;;;20.75;45.50;99774.23;130377;1267;109934;-76
2022/05/23 13:30:00;;;;;;;2.40;1.10;;;;;;;20.88;44.72;99769.11;130371;1268;108743;-77
2022/05/23 13:33:14;;;;;;;2.20;1.40;;;;;;;20.98;44.96;99771.58;130424;1268;108702;-78
2022/05/23 13:36:19;;;;;;;1.20;1.00;;;;;;;21.00;44.89;99774.12;130405;1268;107738;-77
2022/05/23 13:39:26;;;;;;;1.20;1.10;;;;;;;21.09;44.89;99771.94;130401;1267;107718;-77
2022/05/23 13:42:32;;;;;;;1.80;1.20;;;;;;;21.24;45.00;99763.62;130514;1268;108980;-77
2022/05/23 13:45:39;;;;;;;2.00;1.10;;;;;;;21.42;44.73;99754.65;130519;1268;108628;-77
2022/05/23 13:48:49;;;;;;;1.20;1.10;;;;;;;21.50;44.25;99751.51;130782;1268;108705;-81
2022/05/23 13:51:57;;;;;;;1.30;0.90;;;;;;;21.43;44.55;99752.24;130496;1267;108647;-78
2022/05/23 13:55:07;;;;;;;2.10;1.00;;;;;;;21.29;44.75;99746.70;130361;1268;108600;-76
2022/05/23 13:58:16;;;;;;;1.20;0.90;;;;;;;21.10;44.62;99744.25;130388;1268;108697;-76
2022/05/23 14:01:26;;;;;;;1.10;0.90;;;;;;;20.89;44.55;99743.10;130426;1267;108673;-74
2022/05/23 14:04:36;;;;;;;1.60;1.00;;;;;;;20.83;44.71;99744.36;130441;1268;108646;-75
2022/05/23 14:07:43;;;;;;;1.50;1.40;;;;;;;20.82;44.60;99740.42;130383;1268;108634;-75
2022/05/23 14:10:50;;;;;;;1.20;1.10;;;;;;;20.93;44.47;99742.04;130406;1268;108957;-79
2022/05/23 14:14:00;;;;;;;1.60;1.10;;;;;;;21.02;44.56;99744.42;130542;1267;108723;-77
2022/05/23 14:17:14;;;;;;;1.50;1.10;;;;;;;21.14;43.82;99736.41;130439;1268;108616;-74
2022/05/23 14:20:32;;;;;;;1.70;1.00;;;;;;;21.10;43.58;99733.55;130453;1268;108760;-76
2022/05/23 14:23:37;;;;;;;0.90;0.90;;;;;;;21.15;43.70;99733.02;130464;1268;108704;-75
2022/05/23 14:26:43;;;;;;;1.20;1.10;;;;;;;21.24;43.95;99731.38;130415;1268;108672;-75
2022/05/23 14:30:09;;;;;;;1.10;1.00;;;;;;;21.32;43.95;99726.25;130316;1268;108687;-76
2022/05/23 14:33:26;;;;;;;1.20;1.00;;;;;;;21.41;43.84;99727.71;130392;1268;107573;-73
2022/05/23 14:36:32;;;;;;;1.40;1.00;;;;;;;21.43;42.50;99721.26;130366;1268;108680;-74
2022/05/23 14:39:38;;;;;;;1.20;1.00;;;;;;;21.34;43.00;99724.41;130376;1268;107997;-74
2022/05/23 14:42:49;;;;;;;1.20;1.10;;;;;;;21.36;43.44;99723.89;130472;1268;108657;-74
2022/05/23 14:45:57;;;;;;;1.80;1.10;;;;;;;21.42;43.39;99723.33;130433;1267;108735;-79
2022/05/23 14:49:05;;;;;;;1.60;1.00;;;;;;;21.46;43.32;99713.28;130461;1268;108938;-75
2022/05/23 14:52:19;;;;;;;1.30;1.10;;;;;;;21.51;43.44;99712.15;131991;1267;108431;-75
2022/05/23 14:55:26;;;;;;;1.60;1.10;;;;;;;21.55;43.09;99708.71;130373;1268;108718;-77
2022/05/23 15:02:01;;;;;;;1.30;1.10;;;;;;;21.61;43.06;99702.15;130441;1268;108867;-78
2022/05/23 15:05:11;;;;;;;1.80;1.20;;;;;;;21.63;42.85;99699.46;130403;1268;109231;-77
2022/05/23 15:08:17;;;;;;;3.00;1.30;;;;;;;21.62;43.09;99694.85;130374;1268;107724;-77
2022/05/23 15:11:27;;;;;;;3.00;1.20;;;;;;;21.59;43.04;99696.14;130351;1268;107689;-77
2022/05/23 15:14:35;;;;;;;;;;;;;;;21.51;42.86;99695.70;130340;1268;108811;-76
2022/05/23 15:17:41;;;;;;;1.60;0.90;;;;;;;21.39;42.79;99690.29;130319;1268;108971;-79
2022/05/23 15:20:48;;;;;;;1.60;1.00;;;;;;;21.25;42.72;99687.71;130360;1268;108919;-76
2022/05/23 15:23:58;;;;;;;4.80;1.20;;;;;;;21.12;42.65;99688.52;130409;1268;108926;-75
2022/05/23 15:27:06;;;;;;;2.60;2.20;;;;;;;21.00;42.73;99687.20;130410;1268;108295;-76
2022/05/23 15:30:18;;;;;;;1.80;1.40;;;;;;;20.89;42.64;99686.23;130380;1267;108863;-76
2022/05/23 15:33:24;;;;;;;1.30;1.20;;;;;;;20.76;42.66;99688.91;130445;1268;108851;-75
2022/05/23 15:36:30;;;;;;;2.20;1.10;;;;;;;20.57;42.51;99695.52;130574;1268;108968;-76
2022/05/23 15:39:35;;;;;;;1.30;1.10;;;;;;;20.34;42.67;99696.67;130473;1268;109032;-76
2022/05/23 15:42:42;;;;;;;2.40;1.10;;;;;;;20.13;42.95;99692.96;130348;1268;108940;-76
2022/05/23 15:45:50;;;;;;;1.50;1.10;;;;;;;20.02;42.85;99691.64;130437;1268;108674;-76
2022/05/23 15:49:00;;;;;;;2.30;1.00;;;;;;;19.96;43.01;99684.88;130388;1267;108792;-76